Accueil
METAR-TAF:

METAR-TAF

Aéroports :

Aéroport international de Genève

Genève, Suisse

latitude: 46-15N, longitude: 006-08E, altitude: 420 m

Observation

Le bulletin a été fait il y a 24 minutes, à 03:50 UTC
Vent 12 kt de nord/nord-est
Température 14°C
Humidité 58%
Pression 1024 hPa
Visibilité 10 km ou plus
pas de nuages en-dessous de 1500 mètres et pas de cumulonimbus.

METAR: LSGG 230350Z 03012KT CAVOK 14/06 Q1024 NOSIG

Heure: 06:14 (04:14 UTC)

Prévision

Le bulletin a été fait il y a 1 heure et 49 minutes, à 02:25 UTC
Prévision valable du 23 à 03 UTC au 24 à 09 UTC
Vent 12 kt de nord-est
Visibilité 10 km ou plus
pas de nuages en-dessous de 1500 mètres et pas de cumulonimbus.

TAF: LSGG 230225Z 2303/2409 04012KT CAVOK TX23/2315Z TN10/2304Z TN11/2404Z

Observations et prévisions météorologiques de plus de 4000 aéroports (messages METAR et TAF).

Les stations disponibles sont représentées par des disques jaunes et rouges sur la carte.

Passer la souris dessus pour voir le nom de la station.

Cliquer dessus pour voir les observations et prévisions météorologiques.

Pour changer de carte: cliquez sur les boutons verts avec une croix noire pour zoomer, sur le bouton vert avec un tiret pour effectuer un zoom arrière, ou sur les flèches vertes pour les cartes adjacentes.


METAR-TAF: